createdAt,value
2022-09-26T00:01:10.316Z,99834.03
2022-09-26T00:04:11.661Z,99829.09
2022-09-26T00:07:38.201Z,99820.66
2022-09-26T00:10:44.395Z,99812.63
2022-09-26T00:13:48.907Z,99799.50
2022-09-26T00:20:23.719Z,99789.00
2022-09-26T00:23:05.941Z,99779.78
2022-09-26T00:26:14.126Z,99761.44
2022-09-26T00:29:09.827Z,99753.00
2022-09-26T00:31:55.267Z,99735.75
2022-09-26T00:39:31.566Z,99726.91
2022-09-26T00:42:26.871Z,99720.13
2022-09-26T00:50:25.836Z,99704.31
2022-09-26T00:56:44.493Z,99692.00
2022-09-26T00:59:44.125Z,99684.16
2022-09-26T01:02:28.145Z,99683.16
2022-09-26T01:05:07.937Z,99683.75
2022-09-26T01:11:49.131Z,99662.00
2022-09-26T01:14:30.392Z,99657.06
2022-09-26T01:21:12.947Z,99644.97
2022-09-26T01:24:32.942Z,99647.81
2022-09-26T01:27:53.984Z,99646.56
2022-09-26T01:30:46.791Z,99640.22
2022-09-26T01:37:32.415Z,99639.59
2022-09-26T01:45:26.119Z,99629.53
2022-09-26T01:48:25.184Z,99617.63
2022-09-26T01:55:08.201Z,99612.47
2022-09-26T01:58:44.455Z,99603.22
2022-09-26T02:01:44.648Z,99603.22
2022-09-26T02:08:17.986Z,99589.22
2022-09-26T02:11:45.358Z,99586.78
2022-09-26T02:15:06.956Z,99576.66
2022-09-26T02:17:57.266Z,99568.69
2022-09-26T02:21:16.830Z,99565.38
2022-09-26T02:26:42.469Z,99551.16
2022-09-26T02:46:37.710Z,99533.53
2022-09-26T02:49:57.266Z,99531.66
2022-09-26T02:53:19.513Z,99528.38
2022-09-26T02:57:01.340Z,99528.97
2022-09-26T03:07:08.150Z,99514.78
2022-09-26T03:09:59.315Z,99512.53
2022-09-26T03:13:01.203Z,99513.78
2022-09-26T03:16:10.043Z,99518.44
2022-09-26T03:19:20.906Z,99507.16
2022-09-26T03:22:19.504Z,99504.09
2022-09-26T03:25:18.915Z,99494.06
2022-09-26T03:31:38.762Z,99480.09
2022-09-26T03:34:28.815Z,99480.28
2022-09-26T03:37:31.280Z,99480.94
2022-09-26T03:43:55.610Z,99483.41
2022-09-26T03:46:58.509Z,99476.44
2022-09-26T03:49:31.269Z,99469.84
2022-09-26T03:52:30.812Z,99469.22
2022-09-26T03:55:16.918Z,99465.13
2022-09-26T04:05:08.397Z,99443.56
2022-09-26T04:07:54.200Z,99439.50
2022-09-26T04:10:54.849Z,99442.38
2022-09-26T04:13:52.315Z,99429.69
2022-09-26T04:20:29.953Z,99429.44
2022-09-26T04:23:31.978Z,99422.47
2022-09-26T04:34:14.466Z,99394.19
2022-09-26T04:37:38.506Z,99388.84
2022-09-26T04:40:44.154Z,99375.13
2022-09-26T04:43:30.796Z,99369.69
2022-09-26T04:49:48.248Z,99350.38
2022-09-26T04:52:27.844Z,99341.91
2022-09-26T04:55:00.848Z,99347.28
2022-09-26T04:57:56.670Z,99326.94
2022-09-26T05:00:29.902Z,99330.00
2022-09-26T05:03:19.123Z,99323.41
2022-09-26T05:06:26.635Z,99317.06
2022-09-26T05:09:22.032Z,99314.09
2022-09-26T05:12:33.181Z,99305.41
2022-09-26T05:15:48.016Z,99299.25
2022-09-26T05:22:33.053Z,99282.22
2022-09-26T05:25:22.883Z,99283.16
2022-09-26T05:31:18.103Z,99281.09
2022-09-26T05:33:57.602Z,99264.22
2022-09-26T05:36:47.334Z,99259.19
2022-09-26T05:40:24.055Z,99247.97
2022-09-26T05:43:55.476Z,99243.59
2022-09-26T05:47:09.013Z,99236.41
2022-09-26T05:49:40.253Z,99232.44
2022-09-26T06:02:48.384Z,99211.09
2022-09-26T06:09:15.955Z,99214.47
2022-09-26T06:12:55.518Z,99207.28
2022-09-26T06:19:07.183Z,99195.41
2022-09-26T06:22:16.313Z,99195.28
2022-09-26T06:28:39.703Z,99187.13
2022-09-26T06:31:48.188Z,99177.59
2022-09-26T06:41:39.188Z,99162.13
2022-09-26T06:44:56.972Z,99151.91
2022-09-26T06:47:51.924Z,99146.44
2022-09-26T06:50:55.016Z,99141.09
2022-09-26T06:53:57.163Z,99124.28
2022-09-26T06:57:35.679Z,99116.94
2022-09-26T07:10:27.360Z,99098.31
2022-09-26T07:13:51.773Z,99096.28
2022-09-26T07:20:21.031Z,99091.03
2022-09-26T07:24:02.185Z,99087.34
2022-09-26T07:30:44.825Z,99067.50
2022-09-26T07:43:22.353Z,99046.72
2022-09-26T07:46:30.181Z,99048.75
2022-09-26T07:53:36.746Z,99032.88
2022-09-26T07:57:15.927Z,99028.88
2022-09-26T08:00:23.423Z,99030.97
2022-09-26T08:03:42.105Z,99025.00
2022-09-26T08:06:29.980Z,99024.34
2022-09-26T08:12:12.589Z,99017.75
2022-09-26T08:15:25.409Z,99021.84
2022-09-26T08:18:44.069Z,99011.88
2022-09-26T08:22:01.675Z,99001.69
2022-09-26T08:24:56.144Z,98999.06
2022-09-26T08:30:56.226Z,98997.38
2022-09-26T08:34:01.622Z,98994.00
2022-09-26T08:37:14.097Z,98990.75
2022-09-26T08:40:32.480Z,98978.28
2022-09-26T08:43:55.878Z,98991.13
2022-09-26T08:54:36.294Z,98968.19
2022-09-26T09:11:33.312Z,98961.97
2022-09-26T09:14:41.485Z,98944.75
2022-09-26T09:17:25.742Z,98946.63
2022-09-26T09:20:55.898Z,98926.72
2022-09-26T09:24:15.470Z,98920.56
2022-09-26T09:27:53.655Z,98939.34
2022-09-26T09:35:35.777Z,98942.03
2022-09-26T09:39:15.688Z,98932.75
2022-09-26T09:43:00.176Z,98924.69
2022-09-26T09:45:40.251Z,98919.19
2022-09-26T09:48:29.023Z,98927.94
2022-09-26T09:51:39.419Z,98917.47
2022-09-26T09:54:41.079Z,98932.75
2022-09-26T10:01:55.296Z,98912.16
2022-09-26T10:05:12.534Z,98903.41
2022-09-26T10:08:19.205Z,98903.34
2022-09-26T10:16:14.968Z,98886.72
2022-09-26T10:19:38.712Z,98882.84
2022-09-26T10:26:46.468Z,98902.81
2022-09-26T10:29:50.530Z,98886.69
2022-09-26T10:32:56.290Z,98893.25
2022-09-26T10:37:05.369Z,98894.16
2022-09-26T10:58:40.143Z,98904.50
2022-09-26T11:01:23.311Z,98903.66
2022-09-26T11:05:10.746Z,98904.44
2022-09-26T11:08:55.676Z,98888.41
2022-09-26T11:12:09.835Z,98902.66
2022-09-26T11:15:55.759Z,98889.81
2022-09-26T11:18:42.091Z,98879.34
2022-09-26T11:21:50.597Z,98888.06
2022-09-26T11:25:19.546Z,98882.56
2022-09-26T11:28:54.763Z,98883.28
2022-09-26T11:32:01.586Z,98872.28
2022-09-26T11:39:08.524Z,98851.66
2022-09-26T11:42:32.122Z,98831.53
2022-09-26T11:45:09.477Z,98838.00
2022-09-26T11:48:27.231Z,98827.75
2022-09-26T11:52:04.050Z,98829.88
2022-09-26T11:55:03.784Z,98806.31
2022-09-26T12:14:20.085Z,98759.38
2022-09-26T12:20:50.740Z,98763.94
2022-09-26T12:31:20.112Z,98760.53
2022-09-26T12:34:35.737Z,98760.47
2022-09-26T12:41:40.345Z,98778.13
2022-09-26T12:45:05.600Z,98754.44
2022-09-26T12:51:45.122Z,98758.19
2022-09-26T12:55:01.047Z,98738.19
2022-09-26T12:58:24.971Z,98734.13
2022-09-26T13:08:27.396Z,98713.25
2022-09-26T13:12:14.521Z,98712.69
2022-09-26T13:15:54.432Z,98703.84
2022-09-26T13:22:23.421Z,98705.69
2022-09-26T13:29:18.192Z,98701.63
2022-09-26T13:32:21.396Z,98689.31
2022-09-26T13:39:47.600Z,98673.63
2022-09-26T13:42:50.084Z,98663.78
2022-09-26T13:45:33.863Z,98663.88
2022-09-26T13:49:20.988Z,98653.31
2022-09-26T13:52:05.993Z,98649.72
2022-09-26T13:55:11.742Z,98635.13
2022-09-26T14:01:18.778Z,98633.31
2022-09-26T14:04:36.072Z,98613.97
2022-09-26T14:07:29.447Z,98623.84
2022-09-26T14:10:20.630Z,98615.53
2022-09-26T14:13:57.925Z,98608.50
2022-09-26T14:16:27.500Z,98608.97
2022-09-26T14:19:07.977Z,98589.63
2022-09-26T14:21:48.490Z,98590.56
2022-09-26T14:24:41.082Z,98588.31
2022-09-26T14:27:52.249Z,98583.72
2022-09-26T14:30:41.431Z,98592.19
2022-09-26T14:33:13.114Z,98584.56
2022-09-26T14:35:54.875Z,98578.06
2022-09-26T14:38:48.083Z,98584.59
2022-09-26T14:41:21.606Z,98579.31
2022-09-26T14:44:53.771Z,98587.50
2022-09-26T14:47:56.875Z,98582.78
2022-09-26T14:55:09.030Z,98572.38
2022-09-26T14:58:42.135Z,98574.69
2022-09-26T15:01:47.456Z,98557.22
2022-09-26T15:04:33.851Z,98544.59
2022-09-26T15:07:16.376Z,98542.56
2022-09-26T15:10:03.256Z,98548.28
2022-09-26T15:13:23.714Z,98548.09
2022-09-26T15:16:21.299Z,98549.34
2022-09-26T15:19:03.159Z,98525.91
2022-09-26T15:21:45.131Z,98535.28
2022-09-26T15:24:45.968Z,98549.13
2022-09-26T15:27:46.068Z,98542.47
2022-09-26T15:30:29.819Z,98546.09
2022-09-26T15:35:54.944Z,98531.19
2022-09-26T15:41:38.314Z,98536.22
2022-09-26T15:44:28.054Z,98526.75
2022-09-26T15:47:03.810Z,98518.09
2022-09-26T15:49:39.921Z,98519.69
2022-09-26T15:55:04.092Z,98506.66
2022-09-26T15:57:34.018Z,98525.91
2022-09-26T16:00:02.433Z,98498.41
2022-09-26T16:02:36.519Z,98503.09
2022-09-26T16:05:12.651Z,98504.59
2022-09-26T16:10:36.887Z,98495.03
2022-09-26T16:13:04.168Z,98482.84
2022-09-26T16:15:38.094Z,98493.53
2022-09-26T16:18:59.834Z,98480.56
2022-09-26T16:30:22.144Z,98477.00
2022-09-26T16:37:03.525Z,98451.31
2022-09-26T16:44:27.543Z,98460.97
2022-09-26T16:47:50.930Z,98442.22
2022-09-26T16:50:52.253Z,98444.25
2022-09-26T16:54:06.709Z,98437.50
2022-09-26T16:57:16.275Z,98434.63
2022-09-26T17:00:53.945Z,98448.22
2022-09-26T17:03:40.368Z,98430.63
2022-09-26T17:06:17.308Z,98437.25
2022-09-26T17:09:08.004Z,98451.22
2022-09-26T17:11:38.518Z,98441.78
2022-09-26T17:14:19.637Z,98438.88
2022-09-26T17:17:06.373Z,98453.94
2022-09-26T17:20:33.023Z,98443.72
2022-09-26T17:26:19.553Z,98440.22
2022-09-26T17:29:00.703Z,98457.41
2022-09-26T17:31:34.826Z,98450.97
2022-09-26T17:34:21.014Z,98451.28
2022-09-26T17:37:18.745Z,98457.34
2022-09-26T17:41:17.025Z,98454.53
2022-09-26T17:44:06.447Z,98454.28
2022-09-26T17:46:47.000Z,98458.97
2022-09-26T17:49:53.662Z,98451.94
2022-09-26T17:52:35.262Z,98458.06
2022-09-26T17:55:32.340Z,98479.69
2022-09-26T17:58:10.805Z,98472.66
2022-09-26T18:01:05.556Z,98477.13
2022-09-26T18:03:54.783Z,98491.84
2022-09-26T18:06:28.960Z,98483.06
2022-09-26T18:15:25.635Z,98485.38
2022-09-26T18:18:03.467Z,98477.66
2022-09-26T18:20:39.373Z,98492.69
2022-09-26T18:23:21.548Z,98479.50
2022-09-26T18:26:21.534Z,98483.09
2022-09-26T18:29:16.733Z,98495.03
2022-09-26T18:32:15.325Z,98481.84
2022-09-26T18:37:59.423Z,98501.44
2022-09-26T18:41:18.749Z,98484.94
2022-09-26T18:47:22.191Z,98506.03
2022-09-26T18:53:48.018Z,98496.59
2022-09-26T18:57:15.244Z,98493.47
2022-09-26T19:00:33.979Z,98484.69
2022-09-26T19:03:59.649Z,98499.63
2022-09-26T19:10:34.870Z,98505.06
2022-09-26T19:13:30.589Z,98490.78
2022-09-26T19:16:38.376Z,98488.34
2022-09-26T19:19:42.343Z,98491.13
2022-09-26T19:26:24.442Z,98494.03
2022-09-26T19:29:16.704Z,98491.59
2022-09-26T19:31:47.325Z,98485.44
2022-09-26T19:34:39.662Z,98492.00
2022-09-26T19:37:14.069Z,98486.09
2022-09-26T19:40:00.527Z,98477.91
2022-09-26T19:45:47.575Z,98480.31
2022-09-26T19:48:53.524Z,98472.16
2022-09-26T19:51:53.210Z,98474.81
2022-09-26T19:55:05.294Z,98469.16
2022-09-26T19:58:10.843Z,98471.50
2022-09-26T20:01:08.421Z,98471.03
2022-09-26T20:04:15.595Z,98472.34
2022-09-26T20:06:58.483Z,98469.66
2022-09-26T20:09:59.157Z,98477.19
2022-09-26T20:12:56.372Z,98466.00
2022-09-26T20:15:27.252Z,98462.50
2022-09-26T20:18:11.767Z,98454.66
2022-09-26T20:21:17.111Z,98453.84
2022-09-26T20:24:04.434Z,98451.16
2022-09-26T20:30:58.940Z,98455.78
2022-09-26T20:33:58.908Z,98445.41
2022-09-26T20:37:28.595Z,98443.72
2022-09-26T20:41:28.428Z,98431.66
2022-09-26T20:44:09.626Z,98437.31
2022-09-26T20:46:55.051Z,98426.16
2022-09-26T20:52:32.680Z,98428.00
2022-09-26T20:58:12.155Z,98420.53
2022-09-26T21:00:42.232Z,98423.13
2022-09-26T21:03:26.913Z,98422.81
2022-09-26T21:06:06.141Z,98425.25
2022-09-26T21:08:43.861Z,98419.25
2022-09-26T21:11:26.738Z,98419.25
2022-09-26T21:14:00.382Z,98417.06
2022-09-26T21:16:37.854Z,98420.47
2022-09-26T21:19:30.616Z,98410.59
2022-09-26T21:22:21.902Z,98406.94
2022-09-26T21:25:35.792Z,98411.47
2022-09-26T21:29:06.002Z,98405.06
2022-09-26T21:31:34.740Z,98415.53
2022-09-26T21:34:02.059Z,98404.09
2022-09-26T21:36:35.113Z,98404.84
2022-09-26T21:39:37.786Z,98400.78
2022-09-26T21:42:19.841Z,98393.56
2022-09-26T21:45:01.420Z,98393.31
2022-09-26T21:47:40.703Z,98387.47
2022-09-26T21:50:30.230Z,98382.31
2022-09-26T21:53:28.933Z,98384.16
2022-09-26T21:59:20.853Z,98383.25
2022-09-26T22:13:48.791Z,98374.91
2022-09-26T22:16:47.898Z,98374.34
2022-09-26T22:20:08.085Z,98367.38
2022-09-26T22:22:40.458Z,98362.59
2022-09-26T22:25:33.484Z,98361.34
2022-09-26T22:28:03.116Z,98365.44
2022-09-26T22:30:40.326Z,98356.84
2022-09-26T22:33:15.931Z,98353.38
2022-09-26T22:36:13.494Z,98350.16
2022-09-26T22:38:45.110Z,98353.13
2022-09-26T22:41:41.515Z,98353.63
2022-09-26T22:44:12.851Z,98343.75
2022-09-26T22:46:46.963Z,98344.94
2022-09-26T22:49:33.656Z,98344.75
2022-09-26T22:52:11.884Z,98340.38
2022-09-26T22:54:41.248Z,98346.28
2022-09-26T23:00:13.092Z,98342.19
2022-09-26T23:05:34.481Z,98329.13
2022-09-26T23:11:07.391Z,98322.28
2022-09-26T23:13:49.905Z,98331.31
2022-09-26T23:16:54.581Z,98323.53
2022-09-26T23:22:07.932Z,98322.50
2022-09-26T23:25:02.918Z,98320.94
2022-09-26T23:27:29.624Z,98316.16
2022-09-26T23:32:58.359Z,98315.03
2022-09-26T23:35:38.361Z,98316.59
2022-09-26T23:39:04.194Z,98309.91
2022-09-26T23:41:49.049Z,98313.41
2022-09-26T23:47:18.239Z,98302.44
2022-09-26T23:50:00.298Z,98302.94
2022-09-26T23:52:36.729Z,98305.63
2022-09-26T23:55:34.082Z,98296.53
2022-09-26T23:58:40.495Z,98299.53
